createdAt,value
2022-09-23T00:01:17.020Z,77.51
2022-09-23T00:03:46.411Z,77.58
2022-09-23T00:06:16.390Z,77.58
2022-09-23T00:08:44.577Z,78.00
2022-09-23T00:11:14.910Z,77.63
2022-09-23T00:13:43.899Z,77.67
2022-09-23T00:16:13.881Z,77.76
2022-09-23T00:18:41.217Z,77.70
2022-09-23T00:21:11.279Z,77.72
2022-09-23T00:23:41.200Z,77.83
2022-09-23T00:26:09.918Z,77.97
2022-09-23T00:28:38.764Z,78.00
2022-09-23T00:31:08.977Z,77.93
2022-09-23T00:33:35.977Z,77.64
2022-09-23T00:36:05.241Z,77.46
2022-09-23T00:38:34.578Z,77.41
2022-09-23T00:41:01.861Z,77.74
2022-09-23T00:43:41.613Z,78.75
2022-09-23T00:46:10.755Z,78.35
2022-09-23T00:48:41.627Z,77.48
2022-09-23T00:51:10.193Z,78.29
2022-09-23T00:53:38.211Z,77.82
2022-09-23T00:56:08.537Z,77.91
2022-09-23T00:58:37.804Z,77.94
2022-09-23T01:01:05.605Z,78.01
2022-09-23T01:03:32.866Z,77.51
2022-09-23T01:06:00.136Z,77.42
2022-09-23T01:08:28.795Z,77.69
2022-09-23T01:11:01.480Z,77.17
2022-09-23T01:13:35.186Z,77.10
2022-09-23T01:16:11.457Z,77.77
2022-09-23T01:19:22.232Z,77.38
2022-09-23T01:22:08.641Z,76.44
2022-09-23T01:24:47.752Z,75.84
2022-09-23T01:27:29.148Z,75.87
2022-09-23T01:30:07.774Z,75.73
2022-09-23T01:32:53.146Z,76.59
2022-09-23T01:36:01.133Z,77.26
2022-09-23T01:39:00.569Z,77.05
2022-09-23T01:41:47.383Z,77.73
2022-09-23T01:44:30.473Z,77.96
2022-09-23T01:47:02.750Z,77.74
2022-09-23T01:49:52.224Z,76.84
2022-09-23T01:52:39.359Z,77.03
2022-09-23T01:55:29.487Z,76.18
2022-09-23T01:58:04.061Z,75.28
2022-09-23T02:00:37.077Z,75.04
2022-09-23T02:03:17.643Z,75.16
2022-09-23T02:05:52.897Z,75.24
2022-09-23T02:08:29.875Z,76.05
2022-09-23T02:11:05.039Z,75.65
2022-09-23T02:13:40.375Z,75.15
2022-09-23T02:16:15.733Z,76.56
2022-09-23T02:18:52.455Z,75.59
2022-09-23T02:21:22.174Z,75.28
2022-09-23T02:24:00.389Z,77.05
2022-09-23T02:26:33.514Z,78.16
2022-09-23T02:29:24.978Z,78.31
2022-09-23T02:32:01.991Z,78.46
2022-09-23T02:35:01.365Z,78.34
2022-09-23T02:37:42.933Z,77.89
2022-09-23T02:40:46.334Z,78.21
2022-09-23T02:43:28.455Z,77.85
2022-09-23T02:45:56.450Z,76.53
2022-09-23T02:48:30.882Z,77.48
2022-09-23T02:51:02.535Z,75.70
2022-09-23T02:53:34.168Z,76.53
2022-09-23T02:56:02.230Z,76.37
2022-09-23T02:58:30.385Z,77.28
2022-09-23T03:01:06.399Z,77.69
2022-09-23T03:03:40.917Z,77.92
2022-09-23T03:06:24.503Z,76.80
2022-09-23T03:08:58.751Z,77.63
2022-09-23T03:11:26.604Z,77.42
2022-09-23T03:14:20.186Z,78.04
2022-09-23T03:17:07.426Z,78.17
2022-09-23T03:19:43.389Z,78.54
2022-09-23T03:22:19.297Z,78.24
2022-09-23T03:24:53.761Z,78.40
2022-09-23T03:27:27.007Z,78.04
2022-09-23T03:29:55.659Z,77.60
2022-09-23T03:32:28.198Z,77.59
2022-09-23T03:35:00.319Z,77.54
2022-09-23T03:37:47.573Z,77.43
2022-09-23T03:40:27.142Z,77.59
2022-09-23T03:42:59.118Z,78.42
2022-09-23T03:45:33.568Z,78.14
2022-09-23T03:48:01.486Z,78.22
2022-09-23T03:50:29.137Z,78.52
2022-09-23T03:52:56.068Z,77.74
2022-09-23T03:55:23.025Z,78.46
2022-09-23T03:57:49.901Z,78.25
2022-09-23T04:00:17.027Z,78.52
2022-09-23T04:02:44.550Z,78.42
2022-09-23T04:05:13.383Z,78.75
2022-09-23T04:07:41.357Z,78.54
2022-09-23T04:10:10.197Z,78.29
2022-09-23T04:12:37.706Z,77.96
2022-09-23T04:15:05.379Z,78.34
2022-09-23T04:17:32.341Z,78.30
2022-09-23T04:19:59.297Z,78.27
2022-09-23T04:22:26.520Z,77.56
2022-09-23T04:24:53.493Z,77.89
2022-09-23T04:27:23.192Z,78.24
2022-09-23T04:29:50.109Z,77.52
2022-09-23T04:32:17.088Z,78.19
2022-09-23T04:34:46.755Z,78.38
2022-09-23T04:37:13.889Z,78.08
2022-09-23T04:39:40.843Z,77.87
2022-09-23T04:42:08.000Z,78.21
2022-09-23T04:44:35.232Z,78.64
2022-09-23T04:47:02.260Z,78.80
2022-09-23T04:49:30.310Z,79.26
2022-09-23T04:51:57.165Z,79.00
2022-09-23T04:54:24.110Z,79.21
2022-09-23T04:56:51.059Z,79.32
2022-09-23T04:59:18.041Z,79.68
2022-09-23T05:01:45.006Z,79.39
2022-09-23T05:04:14.367Z,79.65
2022-09-23T05:06:44.165Z,80.12
2022-09-23T05:09:15.887Z,79.95
2022-09-23T05:11:42.880Z,79.66
2022-09-23T05:14:10.238Z,79.69
2022-09-23T05:16:37.494Z,79.48
2022-09-23T05:19:04.519Z,80.00
2022-09-23T05:21:31.854Z,79.45
2022-09-23T05:24:01.036Z,79.96
2022-09-23T05:26:32.534Z,80.20
2022-09-23T05:29:00.364Z,80.18
2022-09-23T05:31:29.159Z,80.51
2022-09-23T05:33:59.121Z,79.97
2022-09-23T05:36:27.860Z,80.05
2022-09-23T05:38:57.159Z,79.52
2022-09-23T05:41:25.630Z,79.44
2022-09-23T05:43:54.319Z,79.67
2022-09-23T05:46:28.228Z,79.72
2022-09-23T05:49:02.515Z,80.46
2022-09-23T05:51:31.488Z,79.85
2022-09-23T05:53:59.887Z,79.98
2022-09-23T05:56:28.391Z,79.55
2022-09-23T05:58:58.071Z,80.00
2022-09-23T06:01:28.074Z,79.92
2022-09-23T06:03:56.898Z,80.48
2022-09-23T06:06:42.978Z,80.32
2022-09-23T06:09:16.648Z,79.77
2022-09-23T06:11:43.782Z,79.29
2022-09-23T06:14:15.122Z,79.20
2022-09-23T06:16:43.368Z,78.96
2022-09-23T06:19:10.828Z,79.61
2022-09-23T06:21:39.814Z,79.41
2022-09-23T06:24:07.901Z,79.33
2022-09-23T06:26:36.675Z,79.73
2022-09-23T06:29:10.141Z,79.69
2022-09-23T06:31:37.274Z,80.16
2022-09-23T06:34:11.667Z,79.60
2022-09-23T06:36:44.375Z,78.95
2022-09-23T06:39:12.841Z,79.93
2022-09-23T06:41:39.702Z,79.71
2022-09-23T06:44:06.757Z,79.65
2022-09-23T06:46:33.863Z,79.34
2022-09-23T06:49:02.472Z,79.18
2022-09-23T06:51:29.421Z,78.63
2022-09-23T06:53:57.022Z,77.72
2022-09-23T06:56:24.653Z,78.21
2022-09-23T06:58:55.111Z,77.37
2022-09-23T07:01:23.127Z,77.21
2022-09-23T07:03:50.316Z,75.95
2022-09-23T07:06:18.003Z,76.66
2022-09-23T07:08:47.745Z,77.08
2022-09-23T07:11:16.070Z,77.02
2022-09-23T07:13:43.598Z,77.04
2022-09-23T07:16:11.692Z,76.28
2022-09-23T07:18:39.216Z,76.26
2022-09-23T07:21:08.844Z,75.66
2022-09-23T07:23:38.014Z,75.36
2022-09-23T07:26:06.070Z,75.10
2022-09-23T07:28:33.061Z,74.49
2022-09-23T07:31:38.587Z,74.02
2022-09-23T07:34:06.855Z,73.25
2022-09-23T07:36:33.902Z,73.01
2022-09-23T07:39:02.542Z,74.00
2022-09-23T07:41:31.372Z,72.82
2022-09-23T07:44:00.516Z,72.43
2022-09-23T07:46:30.781Z,72.12
2022-09-23T07:48:58.309Z,72.06
2022-09-23T07:51:34.744Z,71.51
2022-09-23T07:54:02.643Z,70.10
2022-09-23T07:56:30.850Z,68.66
2022-09-23T07:59:00.937Z,68.31
2022-09-23T08:01:42.942Z,67.84
2022-09-23T08:04:17.497Z,65.43
2022-09-23T08:06:46.757Z,66.75
2022-09-23T08:09:14.492Z,67.25
2022-09-23T08:11:42.354Z,65.73
2022-09-23T08:14:13.916Z,62.77
2022-09-23T08:16:42.298Z,64.47
2022-09-23T08:19:09.552Z,63.25
2022-09-23T08:21:37.970Z,61.38
2022-09-23T08:24:05.935Z,60.27
2022-09-23T08:26:34.732Z,61.52
2022-09-23T08:29:02.512Z,61.99
2022-09-23T08:31:29.499Z,61.98
2022-09-23T08:33:57.947Z,60.33
2022-09-23T08:36:26.123Z,59.36
2022-09-23T08:38:53.437Z,58.86
2022-09-23T08:41:35.040Z,58.04
2022-09-23T08:44:10.369Z,56.94
2022-09-23T08:46:52.977Z,56.44
2022-09-23T08:49:28.051Z,56.88
2022-09-23T08:51:55.392Z,56.31
2022-09-23T08:54:22.739Z,57.00
2022-09-23T08:56:52.653Z,55.98
2022-09-23T08:59:44.750Z,53.71
2022-09-23T09:02:23.290Z,53.20
2022-09-23T09:04:54.814Z,53.75
2022-09-23T09:07:38.636Z,53.92
2022-09-23T09:10:35.702Z,54.40
2022-09-23T09:13:33.910Z,53.16
2022-09-23T09:16:58.309Z,54.24
2022-09-23T09:19:41.806Z,53.53
2022-09-23T09:22:19.612Z,54.44
2022-09-23T09:24:49.598Z,54.12
2022-09-23T09:27:16.566Z,53.30
2022-09-23T09:29:50.105Z,53.39
2022-09-23T09:32:46.756Z,52.28
2022-09-23T09:35:42.983Z,53.08
2022-09-23T09:38:09.908Z,50.97
2022-09-23T09:40:47.041Z,50.15
2022-09-23T09:43:23.833Z,50.31
2022-09-23T09:46:16.595Z,51.50
2022-09-23T09:49:15.151Z,52.37
2022-09-23T09:51:43.000Z,50.49
2022-09-23T09:54:23.538Z,50.52
2022-09-23T09:56:52.114Z,51.44
2022-09-23T09:59:26.403Z,52.62
2022-09-23T10:02:27.210Z,52.04
2022-09-23T10:05:23.275Z,52.91
2022-09-23T10:07:50.185Z,53.33
2022-09-23T10:10:33.843Z,51.53
2022-09-23T10:13:16.419Z,50.42
2022-09-23T10:15:45.567Z,49.99
2022-09-23T10:18:32.283Z,49.77
2022-09-23T10:21:27.785Z,49.12
2022-09-23T10:24:01.925Z,50.97
2022-09-23T10:26:55.313Z,48.65
2022-09-23T10:29:39.318Z,47.61
2022-09-23T10:32:25.899Z,50.14
2022-09-23T10:35:03.730Z,51.61
2022-09-23T10:37:39.113Z,52.01
2022-09-23T10:40:38.765Z,50.72
2022-09-23T10:43:37.460Z,50.94
2022-09-23T10:46:42.496Z,49.88
2022-09-23T10:49:33.903Z,49.93
2022-09-23T10:52:14.565Z,50.16
2022-09-23T10:55:02.856Z,50.82
2022-09-23T10:57:41.273Z,52.05
2022-09-23T11:00:42.647Z,52.62
2022-09-23T11:03:27.704Z,51.45
2022-09-23T11:06:34.771Z,53.04
2022-09-23T11:09:07.459Z,53.83
2022-09-23T11:12:08.726Z,52.12
2022-09-23T11:14:44.283Z,49.52
2022-09-23T11:17:22.286Z,48.00
2022-09-23T11:20:21.614Z,48.96
2022-09-23T11:23:22.461Z,49.34
2022-09-23T11:26:00.677Z,49.93
2022-09-23T11:28:33.500Z,49.73
2022-09-23T11:31:07.030Z,48.56
2022-09-23T11:33:56.782Z,48.80
2022-09-23T11:36:33.136Z,48.85
2022-09-23T11:39:07.306Z,48.18
2022-09-23T11:41:40.026Z,45.86
2022-09-23T11:44:34.188Z,45.37
2022-09-23T11:47:26.776Z,45.65
2022-09-23T11:50:05.425Z,46.26
2022-09-23T11:52:37.116Z,47.44
2022-09-23T11:55:22.999Z,48.47
2022-09-23T11:57:57.295Z,50.02
2022-09-23T12:00:30.508Z,49.00
2022-09-23T12:03:12.217Z,49.57
2022-09-23T12:05:48.054Z,49.00
2022-09-23T12:08:37.622Z,50.09
2022-09-23T12:11:37.163Z,49.87
2022-09-23T12:14:41.436Z,48.98
2022-09-23T12:17:47.731Z,47.90
2022-09-23T12:20:46.407Z,44.33
2022-09-23T12:23:26.913Z,45.60
2022-09-23T12:25:58.154Z,46.97
2022-09-23T12:28:30.045Z,44.96
2022-09-23T12:31:01.345Z,46.02
2022-09-23T12:33:30.636Z,45.57
2022-09-23T12:36:06.282Z,45.71
2022-09-23T12:38:48.346Z,44.16
2022-09-23T12:41:43.411Z,42.83
2022-09-23T12:44:14.263Z,43.81
2022-09-23T12:46:44.940Z,45.18
2022-09-23T12:49:36.077Z,46.24
2022-09-23T12:52:12.209Z,47.00
2022-09-23T12:54:40.903Z,46.71
2022-09-23T12:57:23.061Z,48.40
2022-09-23T13:00:14.244Z,46.42
2022-09-23T13:02:47.145Z,47.37
2022-09-23T13:05:58.129Z,47.84
2022-09-23T13:08:25.556Z,48.19
2022-09-23T13:11:00.351Z,48.48
2022-09-23T13:13:38.870Z,48.14
2022-09-23T13:16:35.158Z,47.03
2022-09-23T13:19:04.605Z,47.02
2022-09-23T13:21:43.997Z,47.60
2022-09-23T13:24:14.048Z,48.08
2022-09-23T13:26:50.296Z,47.13
2022-09-23T13:29:28.616Z,47.08
2022-09-23T13:31:58.120Z,47.19
2022-09-23T13:34:29.347Z,47.52
2022-09-23T13:36:56.349Z,47.00
2022-09-23T13:39:28.010Z,47.20
2022-09-23T13:42:05.369Z,46.19
2022-09-23T13:44:32.350Z,46.17
2022-09-23T13:47:02.579Z,44.60
2022-09-23T13:49:37.147Z,45.75
2022-09-23T13:52:04.437Z,44.53
2022-09-23T13:54:35.766Z,45.34
2022-09-23T13:57:03.887Z,45.45
2022-09-23T13:59:37.355Z,46.04
2022-09-23T14:02:11.210Z,45.89
2022-09-23T14:04:38.655Z,45.71
2022-09-23T14:07:08.402Z,45.23
2022-09-23T14:09:36.047Z,45.84
2022-09-23T14:12:06.117Z,45.26
2022-09-23T14:14:35.326Z,45.11
2022-09-23T14:17:02.959Z,45.00
2022-09-23T14:19:30.336Z,45.40
2022-09-23T14:21:57.530Z,46.09
2022-09-23T14:24:32.267Z,45.97
2022-09-23T14:27:04.646Z,46.30
2022-09-23T14:29:37.571Z,46.34
2022-09-23T14:32:13.340Z,47.31
2022-09-23T14:34:43.174Z,48.04
2022-09-23T14:37:37.796Z,47.52
2022-09-23T14:40:11.513Z,46.56
2022-09-23T14:42:41.995Z,47.73
2022-09-23T14:45:35.932Z,47.72
2022-09-23T14:48:08.710Z,48.58
2022-09-23T14:50:48.802Z,48.65
2022-09-23T14:53:24.440Z,48.42
2022-09-23T14:55:57.843Z,48.59
2022-09-23T14:58:28.980Z,48.35
2022-09-23T15:01:01.090Z,48.16
2022-09-23T15:03:29.032Z,48.11
2022-09-23T15:06:03.100Z,48.69
2022-09-23T15:08:34.872Z,48.73
2022-09-23T15:11:08.207Z,48.69
2022-09-23T15:13:49.719Z,49.64
2022-09-23T15:16:24.827Z,49.38
2022-09-23T15:18:56.153Z,48.86
2022-09-23T15:21:25.239Z,50.04
2022-09-23T15:23:56.447Z,50.29
2022-09-23T15:26:24.786Z,49.22
2022-09-23T15:28:54.472Z,50.38
2022-09-23T15:31:23.609Z,50.58
2022-09-23T15:33:51.560Z,50.56
2022-09-23T15:36:26.268Z,51.34
2022-09-23T15:38:54.234Z,51.52
2022-09-23T15:41:21.678Z,51.71
2022-09-23T15:43:48.864Z,52.10
2022-09-23T15:46:26.370Z,51.60
2022-09-23T15:48:59.437Z,51.73
2022-09-23T15:51:27.946Z,51.87
2022-09-23T15:53:56.655Z,51.55
2022-09-23T15:56:29.374Z,53.05
2022-09-23T15:58:56.427Z,52.51
2022-09-23T16:01:30.514Z,52.25
2022-09-23T16:03:57.904Z,52.62
2022-09-23T16:06:24.892Z,52.66
2022-09-23T16:08:52.593Z,53.43
2022-09-23T16:11:26.996Z,53.42
2022-09-23T16:13:54.105Z,53.38
2022-09-23T16:16:24.151Z,53.82
2022-09-23T16:18:53.960Z,55.86
2022-09-23T16:21:24.667Z,56.20
2022-09-23T16:23:53.609Z,56.18
2022-09-23T16:26:22.006Z,58.51
2022-09-23T16:28:50.955Z,59.39
2022-09-23T16:31:18.880Z,60.69
2022-09-23T16:33:47.019Z,61.39
2022-09-23T16:36:28.046Z,61.74
2022-09-23T16:38:55.929Z,61.36
2022-09-23T16:41:26.544Z,62.82
2022-09-23T16:43:53.844Z,63.52
2022-09-23T16:46:21.565Z,63.62
2022-09-23T16:48:52.976Z,64.00
2022-09-23T16:51:29.010Z,64.29
2022-09-23T16:53:58.022Z,64.99
2022-09-23T16:56:28.798Z,65.20
2022-09-23T16:58:57.018Z,64.66
2022-09-23T17:01:45.643Z,65.72
2022-09-23T17:04:13.607Z,66.03
2022-09-23T17:06:45.059Z,66.44
2022-09-23T17:09:12.488Z,66.83
2022-09-23T17:11:39.679Z,67.37
2022-09-23T17:14:06.866Z,67.32
2022-09-23T17:16:35.571Z,67.16
2022-09-23T17:19:08.413Z,68.16
2022-09-23T17:21:35.714Z,67.30
2022-09-23T17:24:02.904Z,67.66
2022-09-23T17:26:30.068Z,67.61
2022-09-23T17:28:58.255Z,68.10
2022-09-23T17:31:25.416Z,67.69
2022-09-23T17:33:53.261Z,68.07
2022-09-23T17:36:21.157Z,68.21
2022-09-23T17:38:49.135Z,68.49
2022-09-23T17:41:18.397Z,68.35
2022-09-23T17:43:47.049Z,68.77
2022-09-23T17:46:18.954Z,68.92
2022-09-23T17:48:46.164Z,68.72
2022-09-23T17:51:14.811Z,69.17
2022-09-23T17:53:43.635Z,69.06
2022-09-23T17:56:21.927Z,69.34
2022-09-23T17:58:50.397Z,69.28
2022-09-23T18:01:20.423Z,69.62
2022-09-23T18:03:48.690Z,68.86
2022-09-23T18:06:21.409Z,69.35
2022-09-23T18:08:50.249Z,69.75
2022-09-23T18:11:21.779Z,69.63
2022-09-23T18:13:53.294Z,70.07
2022-09-23T18:16:22.041Z,69.98
2022-09-23T18:19:00.039Z,70.65
2022-09-23T18:21:30.779Z,70.50
2022-09-23T18:24:21.421Z,70.43
2022-09-23T18:26:45.869Z,70.56
2022-09-23T18:29:12.929Z,70.36
2022-09-23T18:31:39.887Z,70.22
2022-09-23T18:34:11.395Z,70.22
2022-09-23T18:36:39.025Z,69.85
2022-09-23T18:39:06.603Z,69.90
2022-09-23T18:41:34.221Z,70.23
2022-09-23T18:44:01.724Z,70.21
2022-09-23T18:46:30.161Z,70.69
2022-09-23T18:49:16.815Z,71.27
2022-09-23T18:51:56.127Z,71.04
2022-09-23T18:54:25.498Z,71.29
2022-09-23T18:56:52.972Z,71.25
2022-09-23T18:59:24.022Z,71.54
2022-09-23T19:01:56.866Z,71.52
2022-09-23T19:04:25.807Z,71.80
2022-09-23T19:06:54.261Z,71.10
2022-09-23T19:09:21.257Z,71.40
2022-09-23T19:11:52.452Z,71.52
2022-09-23T19:14:19.623Z,71.35
2022-09-23T19:16:49.235Z,71.45
2022-09-23T19:19:16.350Z,71.17
2022-09-23T19:21:43.552Z,71.64
2022-09-23T19:24:16.209Z,70.32
2022-09-23T19:26:44.290Z,69.60
2022-09-23T19:29:17.382Z,68.62
2022-09-23T19:31:44.632Z,68.22
2022-09-23T19:34:16.939Z,68.40
2022-09-23T19:36:46.586Z,67.91
2022-09-23T19:39:21.722Z,67.76
2022-09-23T19:41:50.822Z,67.04
2022-09-23T19:44:18.211Z,67.62
2022-09-23T19:46:46.495Z,68.09
2022-09-23T19:49:13.719Z,68.62
2022-09-23T19:51:41.379Z,69.18
2022-09-23T19:54:09.430Z,68.15
2022-09-23T19:56:36.910Z,69.57
2022-09-23T19:59:06.209Z,69.29
2022-09-23T20:01:34.634Z,69.65
2022-09-23T20:04:02.470Z,69.91
2022-09-23T20:06:31.251Z,69.90
2022-09-23T20:09:02.154Z,70.61
2022-09-23T20:11:30.064Z,70.30
2022-09-23T20:14:01.978Z,70.50
2022-09-23T20:16:32.628Z,70.03
2022-09-23T20:19:00.544Z,70.26
2022-09-23T20:21:29.623Z,70.76
2022-09-23T20:23:58.085Z,70.59
2022-09-23T20:26:43.680Z,70.11
2022-09-23T20:29:11.409Z,70.12
2022-09-23T20:31:40.698Z,69.95
2022-09-23T20:34:08.566Z,70.14
2022-09-23T20:36:36.491Z,70.51
2022-09-23T20:39:09.422Z,70.38
2022-09-23T20:41:38.137Z,70.51
2022-09-23T20:44:09.770Z,71.36
2022-09-23T20:46:37.017Z,70.70
2022-09-23T20:49:04.555Z,70.82
2022-09-23T20:51:33.639Z,70.67
2022-09-23T20:54:01.158Z,70.71
2022-09-23T20:56:29.511Z,70.89
2022-09-23T20:59:04.242Z,71.19
2022-09-23T21:01:37.309Z,71.08
2022-09-23T21:04:06.119Z,71.32
2022-09-23T21:06:35.689Z,71.29
2022-09-23T21:09:03.556Z,71.33
2022-09-23T21:11:31.485Z,72.30
2022-09-23T21:14:00.724Z,71.85
2022-09-23T21:16:27.714Z,72.37
2022-09-23T21:18:54.731Z,72.25
2022-09-23T21:21:22.571Z,72.71
2022-09-23T21:23:51.138Z,72.00
2022-09-23T21:26:22.190Z,71.79
2022-09-23T21:28:55.854Z,71.28
2022-09-23T21:31:26.006Z,71.95
2022-09-23T21:33:56.953Z,72.41
2022-09-23T21:36:25.009Z,72.28
2022-09-23T21:38:52.652Z,71.99
2022-09-23T21:41:20.161Z,72.80
2022-09-23T21:43:48.554Z,72.86
2022-09-23T21:46:20.656Z,73.07
2022-09-23T21:48:53.964Z,73.39
2022-09-23T21:51:25.154Z,73.46
2022-09-23T21:53:55.319Z,73.45
2022-09-23T21:56:32.177Z,73.70
2022-09-23T21:59:02.666Z,74.16
2022-09-23T22:01:35.454Z,74.30
2022-09-23T22:04:10.954Z,73.97
2022-09-23T22:06:40.721Z,73.86
2022-09-23T22:09:14.015Z,73.92
2022-09-23T22:12:00.573Z,73.61
2022-09-23T22:14:27.560Z,73.18
2022-09-23T22:16:59.359Z,73.37
2022-09-23T22:19:28.550Z,73.13
2022-09-23T22:21:56.412Z,73.34
2022-09-23T22:24:23.590Z,73.24
2022-09-23T22:26:51.031Z,73.32
2022-09-23T22:29:37.987Z,73.71
2022-09-23T22:32:28.658Z,73.79
2022-09-23T22:34:56.420Z,74.07
2022-09-23T22:37:34.385Z,73.32
2022-09-23T22:40:02.799Z,73.21
2022-09-23T22:42:30.416Z,73.52
2022-09-23T22:44:57.564Z,73.64
2022-09-23T22:47:24.714Z,72.87
2022-09-23T22:49:54.898Z,73.56
2022-09-23T22:52:24.735Z,73.61
2022-09-23T22:54:52.646Z,73.21
2022-09-23T22:57:19.932Z,73.38
2022-09-23T22:59:50.653Z,72.57
2022-09-23T23:02:19.239Z,72.81
2022-09-23T23:04:50.065Z,72.61
2022-09-23T23:07:22.723Z,73.35
2022-09-23T23:09:50.919Z,73.53
2022-09-23T23:12:20.469Z,73.40
2022-09-23T23:14:48.872Z,73.11
2022-09-23T23:17:16.387Z,73.57
2022-09-23T23:19:43.466Z,73.93
2022-09-23T23:22:10.718Z,73.06
2022-09-23T23:24:37.809Z,73.18
2022-09-23T23:27:04.780Z,72.75
2022-09-23T23:29:31.710Z,73.11
2022-09-23T23:31:58.657Z,73.13
2022-09-23T23:34:25.818Z,73.21
2022-09-23T23:36:56.433Z,73.27
2022-09-23T23:39:25.189Z,73.22
2022-09-23T23:41:55.222Z,73.82
2022-09-23T23:44:24.127Z,74.20
2022-09-23T23:46:51.566Z,73.36
2022-09-23T23:49:18.710Z,72.97
2022-09-23T23:51:45.920Z,73.16
2022-09-23T23:54:13.157Z,72.86
2022-09-23T23:56:40.148Z,73.62
2022-09-23T23:59:07.301Z,73.25
